Saint John, Indiana
Current Conditions -  °F | °C
As of 10:35 AM on Friday 24 Oct 2014 (Local Time) from KIGQ Reporting Station
Clear Clear  
Wind Chill: 58°   Ceiling: Unl
Heat Index: 58°   Visibility: 10mi
Dew Point: 49°   Wind: 3mph
Humidity: 72%   Direction: 270°W
Pressure: 30.07"   Gusts: NA
Location:  41.45°N, 87.47°W
Report Text: KIGQ 241535Z AUTO 27003KT 10SM CLR 14/09 A3007 RMK AO2 T01420092
Loading
Personal Weather Stations






























Interactive Weather Map
Tropical Storm Tracking
New forecast layout! Learn more

10-Day Weather Forecast

Advertisements
Track Severe Weather on mobile